Time;durP1;ratioP1;P1;durP2;ratioP2;P2;SDS_P1;SDS_P2;PMS_P1;PMS_P2;Temp;Humidity;BMP_temperature;BMP_pressure;BME280_temperature;BME280_humidity;BME280_pressure;Samples;Min_cycle;Max_cycle;Signal;HPM_P1;HPM_P2
2022/04/15 00:00:41;;;;;;;13.82;7.47;;;7.50;99.90;;;;;;4978671;28;20049;-82
2022/04/15 00:03:07;;;;;;;12.75;7.30;;;7.50;99.90;;;;;;4977735;28;20125;-82
2022/04/15 00:05:36;;;;;;;13.25;7.45;;;7.40;99.90;;;;;;4978875;28;20034;-82
2022/04/15 00:08:05;;;;;;;12.65;7.40;;;7.40;99.90;;;;;;4978424;28;20090;-82
2022/04/15 00:10:32;;;;;;;14.75;7.53;;;7.30;99.90;;;;;;4979617;28;20066;-82
2022/04/15 00:12:59;;;;;;;12.38;7.60;;;7.30;99.90;;;;;;4981740;28;20042;-82
2022/04/15 00:15:25;;;;;;;14.60;7.68;;;7.20;99.90;;;;;;4981978;28;20042;-82
2022/04/15 00:17:51;;;;;;;12.48;6.78;;;7.20;99.90;;;;;;4980394;28;20069;-82
2022/04/15 00:20:17;;;;;;;12.63;7.03;;;7.20;99.90;;;;;;4981034;28;20053;-82
2022/04/15 00:22:43;;;;;;;12.32;6.63;;;7.20;99.90;;;;;;4997359;28;20042;-82
2022/04/15 00:25:12;;;;;;;11.45;6.18;;;7.20;99.90;;;;;;4981809;28;20073;-82
2022/04/15 00:27:39;;;;;;;10.82;5.45;;;7.10;99.90;;;;;;4981429;28;20049;-82
2022/04/15 00:30:09;;;;;;;9.90;5.93;;;7.10;99.90;;;;;;4981493;28;20486;-82
2022/04/15 00:32:35;;;;;;;9.82;5.63;;;7.10;99.90;;;;;;4980593;28;20550;-82
2022/04/15 00:35:02;;;;;;;9.48;5.63;;;7.20;99.90;;;;;;4981736;28;20038;-82
2022/04/15 00:37:28;;;;;;;10.52;5.88;;;7.30;99.90;;;;;;4980971;28;20042;-82
2022/04/15 00:39:53;;;;;;;11.15;6.78;;;7.30;99.90;;;;;;4980837;28;20045;-82
2022/04/15 00:42:22;;;;;;;11.55;6.63;;;7.20;99.90;;;;;;4980910;28;20041;-82
2022/04/15 00:44:58;;;;;;;9.85;5.75;;;7.10;99.90;;;;;;4980749;28;20409;-82
2022/04/15 00:47:48;;;;;;;10.50;6.28;;;7.10;99.90;;;;;;4979891;28;20105;-82
2022/04/15 00:50:16;;;;;;;13.02;7.13;;;7.00;99.90;;;;;;4980856;28;20038;-82
2022/04/15 00:52:46;;;;;;;14.25;8.07;;;6.90;99.90;;;;;;4996384;28;20043;-82
2022/04/15 00:55:13;;;;;;;11.77;6.53;;;6.90;99.90;;;;;;4987237;28;20042;-82
2022/04/15 00:57:44;;;;;;;12.77;7.68;;;6.80;99.90;;;;;;4977080;28;20053;-82
2022/04/15 01:00:12;;;;;;;14.80;7.57;;;6.80;99.90;;;;;;4977095;28;20133;-82
2022/04/15 01:02:39;;;;;;;13.98;7.93;;;6.70;99.90;;;;;;4974820;28;20053;-82
2022/04/15 01:05:08;;;;;;;11.98;7.55;;;6.70;99.90;;;;;;4960938;28;20455;-83
2022/04/15 01:07:36;;;;;;;12.25;6.93;;;6.70;99.90;;;;;;4976460;28;20105;-83
2022/04/15 01:10:05;;;;;;;11.68;7.43;;;6.70;99.90;;;;;;4977291;28;20054;-83
2022/04/15 01:12:33;;;;;;;15.93;8.63;;;6.80;99.90;;;;;;4977234;28;20078;-83
2022/04/15 01:15:01;;;;;;;14.68;8.98;;;6.80;99.90;;;;;;4977650;28;20490;-83
2022/04/15 01:17:30;;;;;;;14.50;9.07;;;6.80;99.90;;;;;;4976377;28;20045;-83
2022/04/15 01:19:56;;;;;;;14.13;8.50;;;6.90;99.90;;;;;;4976901;28;20129;-83
2022/04/15 01:22:31;;;;;;;16.75;8.98;;;6.90;99.90;;;;;;4960593;28;20081;-83
2022/04/15 01:24:57;;;;;;;13.77;9.13;;;6.90;99.90;;;;;;4977311;28;20046;-83
2022/04/15 01:27:44;;;;;;;14.68;9.25;;;7.00;99.90;;;;;;4960685;28;20122;-83
2022/04/15 01:30:21;;;;;;;16.90;9.93;;;7.00;99.90;;;;;;4960544;28;20394;-83
2022/04/15 01:32:48;;;;;;;13.38;8.57;;;7.10;99.90;;;;;;4975946;28;20510;-83
2022/04/15 01:35:16;;;;;;;19.17;10.23;;;7.10;99.90;;;;;;4976526;28;20130;-83
2022/04/15 01:37:44;;;;;;;15.20;9.48;;;7.20;99.90;;;;;;4960683;28;20125;-83
2022/04/15 01:40:11;;;;;;;17.08;9.80;;;7.20;99.90;;;;;;4960537;28;20468;-83
2022/04/15 01:42:38;;;;;;;13.38;9.13;;;7.30;99.90;;;;;;4960512;28;20109;-83
2022/04/15 01:45:09;;;;;;;14.95;9.45;;;7.30;99.90;;;;;;4960600;28;20046;-83
2022/04/15 01:47:36;;;;;;;16.92;10.40;;;7.30;99.90;;;;;;4975799;28;20068;-83
2022/04/15 01:50:03;;;;;;;16.75;10.00;;;7.60;99.90;;;;;;4992730;28;20101;-83
2022/04/15 01:52:29;;;;;;;16.38;10.18;;;7.40;99.90;;;;;;4976363;28;20035;-83
2022/04/15 01:54:54;;;;;;;15.60;10.38;;;7.50;99.90;;;;;;4960124;28;20031;-83
2022/04/15 01:57:20;;;;;;;17.13;9.70;;;7.50;99.90;;;;;;4976071;28;20182;-83
2022/04/15 01:59:46;;;;;;;15.88;9.65;;;7.50;99.90;;;;;;4960751;28;20046;-83
2022/04/15 02:02:12;;;;;;;15.13;9.63;;;7.50;99.90;;;;;;4976039;28;20046;-83
2022/04/15 02:04:37;;;;;;;16.33;10.18;;;7.60;99.90;;;;;;4959541;28;20129;-83
2022/04/15 02:07:03;;;;;;;15.30;10.65;;;7.50;99.90;;;;;;4959876;28;20129;-83
2022/04/15 02:09:30;;;;;;;17.65;10.32;;;7.50;99.90;;;;;;4975963;28;20059;-83
2022/04/15 02:11:55;;;;;;;17.33;9.60;;;7.60;99.90;;;;;;4976398;28;20501;-83
2022/04/15 02:14:22;;;;;;;17.08;10.50;;;8.10;99.90;;;;;;4975567;28;20039;-83
2022/04/15 02:16:50;;;;;;;14.43;9.32;;;7.60;99.90;;;;;;4975735;28;20047;-83
2022/04/15 02:19:15;;;;;;;15.48;9.98;;;7.60;99.90;;;;;;4974702;28;20418;-83
2022/04/15 02:21:41;;;;;;;15.30;9.95;;;7.60;99.90;;;;;;4959172;28;20042;-83
2022/04/15 02:24:07;;;;;;;15.30;10.23;;;7.60;99.90;;;;;;4958831;28;20038;-83
2022/04/15 02:26:33;;;;;;;15.15;10.10;;;7.60;99.90;;;;;;4959450;28;20042;-83
2022/04/15 02:28:59;;;;;;;15.60;9.77;;;7.60;99.90;;;;;;4958942;28;20038;-83
2022/04/15 02:31:26;;;;;;;16.48;10.57;;;7.70;99.90;;;;;;4975897;28;20565;-83
2022/04/15 02:33:52;;;;;;;14.50;10.40;;;7.60;99.90;;;;;;4974539;28;20035;-83
2022/04/15 02:36:18;;;;;;;17.58;10.65;;;7.60;99.90;;;;;;4975358;28;20046;-83
2022/04/15 02:38:44;;;;;;;16.27;10.10;;;7.60;99.90;;;;;;4975045;28;20043;-83
2022/04/15 02:41:10;;;;;;;15.80;10.07;;;7.60;99.90;;;;;;4975008;28;20513;-82
2022/04/15 02:43:39;;;;;;;13.57;9.95;;;8.50;99.90;;;;;;4959135;28;20042;-83
2022/04/15 02:46:08;;;;;;;17.63;10.05;;;7.60;99.90;;;;;;4975277;28;20522;-83
2022/04/15 02:48:35;;;;;;;16.13;10.82;;;7.70;99.90;;;;;;4974300;28;20097;-83
2022/04/15 02:51:02;;;;;;;15.82;9.95;;;7.60;99.90;;;;;;4959057;28;20043;-83
2022/04/15 02:53:29;;;;;;;13.95;9.95;;;7.60;99.90;;;;;;4959496;28;20085;-82
2022/04/15 02:55:55;;;;;;;16.48;10.13;;;7.60;99.90;;;;;;4959287;28;20038;-82
2022/04/15 02:58:21;;;;;;;17.65;9.70;;;7.70;99.90;;;;;;4958668;28;20042;-82
2022/04/15 03:00:47;;;;;;;15.00;10.15;;;7.60;99.90;;;;;;4975175;28;20105;-82
2022/04/15 03:03:13;;;;;;;15.95;10.52;;;7.70;99.90;;;;;;4958404;28;20125;-82
2022/04/15 03:05:39;;;;;;;15.77;10.70;;;7.70;99.90;;;;;;4959261;28;20081;-82
2022/04/15 03:08:05;;;;;;;15.68;10.55;;;7.70;99.90;;;;;;4958580;28;20074;-82
2022/04/15 03:10:31;;;;;;;16.92;9.85;;;7.70;99.90;;;;;;4958973;28;20065;-82
2022/04/15 03:12:57;;;;;;;16.42;10.10;;;7.70;99.90;;;;;;4974889;28;20133;-82
2022/04/15 03:15:23;;;;;;;14.35;9.52;;;7.70;99.90;;;;;;4974699;28;20034;-82
2022/04/15 03:17:49;;;;;;;15.02;9.60;;;7.70;99.90;;;;;;4958023;28;20485;-82
2022/04/15 03:20:14;;;;;;;13.40;8.68;;;7.70;99.90;;;;;;4958672;28;20333;-82
2022/04/15 03:22:42;;;;;;;11.90;8.75;;;7.70;99.90;;;;;;4958952;28;20414;-82
2022/04/15 03:25:14;;;;;;;15.23;9.98;;;7.80;99.90;;;;;;4974355;28;20045;-82
2022/04/15 03:27:40;;;;;;;14.07;9.52;;;7.80;99.90;;;;;;4958539;28;20047;-82
2022/04/15 03:30:07;;;;;;;16.67;10.07;;;7.80;99.90;;;;;;4958553;28;20129;-82
2022/04/15 03:32:32;;;;;;;14.52;9.13;;;7.80;99.90;;;;;;4974076;28;20042;-82
2022/04/15 03:34:59;;;;;;;15.13;9.77;;;7.80;99.90;;;;;;4958751;28;20046;-82
2022/04/15 03:37:25;;;;;;;15.80;9.35;;;7.80;99.90;;;;;;4958345;28;20149;-82
2022/04/15 03:39:52;;;;;;;16.00;9.57;;;7.80;99.90;;;;;;4974798;28;20521;-82
2022/04/15 03:42:18;;;;;;;15.30;10.20;;;7.80;99.90;;;;;;4958229;28;20078;-82
2022/04/15 03:44:44;;;;;;;13.75;8.98;;;7.80;99.90;;;;;;4974442;28;20038;-82
2022/04/15 03:47:10;;;;;;;12.40;9.90;;;7.80;99.90;;;;;;4974257;28;20561;-82
2022/04/15 03:49:36;;;;;;;15.40;9.73;;;7.90;99.90;;;;;;4958515;28;20042;-82
2022/04/15 03:52:02;;;;;;;14.30;9.02;;;7.90;99.90;;;;;;4974225;28;20089;-82
2022/04/15 03:54:27;;;;;;;17.77;10.13;;;7.90;99.90;;;;;;4959141;28;20125;-82
2022/04/15 03:56:53;;;;;;;14.02;9.45;;;8.60;99.90;;;;;;4974850;28;20042;-82
2022/04/15 03:59:20;;;;;;;16.00;9.57;;;7.90;99.90;;;;;;4974691;28;20406;-83
2022/04/15 04:01:46;;;;;;;14.75;9.23;;;7.90;99.90;;;;;;4958308;28;20098;-83
2022/04/15 04:04:11;;;;;;;16.42;9.35;;;8.00;99.90;;;;;;4957729;28;20452;-83
2022/04/15 04:06:39;;;;;;;12.70;9.05;;;7.90;99.90;;;;;;4958328;28;20053;-83
2022/04/15 04:09:05;;;;;;;15.55;9.60;;;7.90;99.90;;;;;;4974595;28;20133;-83
2022/04/15 04:11:31;;;;;;;12.60;8.52;;;7.90;99.90;;;;;;4957987;28;20047;-83
2022/04/15 04:13:56;;;;;;;13.32;8.75;;;7.90;99.90;;;;;;4958252;28;20035;-83
2022/04/15 04:16:22;;;;;;;14.38;9.23;;;7.90;99.90;;;;;;4974711;28;20046;-83
2022/04/15 04:18:48;;;;;;;13.55;8.80;;;8.00;99.90;;;;;;4957038;28;20177;-83
2022/04/15 04:21:13;;;;;;;16.35;9.40;;;8.00;99.90;;;;;;4958232;28;20406;-83
2022/04/15 04:23:39;;;;;;;14.25;9.23;;;8.00;99.90;;;;;;4957786;28;20189;-82
2022/04/15 04:26:05;;;;;;;12.43;8.63;;;8.00;99.90;;;;;;4974088;28;20506;-82
2022/04/15 04:28:32;;;;;;;14.25;9.48;;;8.00;99.90;;;;;;4973812;28;20049;-82
2022/04/15 04:30:57;;;;;;;14.40;8.90;;;8.00;99.90;;;;;;4957672;28;20039;-82
2022/04/15 04:33:23;;;;;;;14.98;9.07;;;8.10;99.90;;;;;;4956547;28;20490;-82
2022/04/15 04:35:49;;;;;;;17.05;10.07;;;8.00;99.90;;;;;;4974484;28;20041;-82
2022/04/15 04:38:15;;;;;;;13.23;9.07;;;8.10;99.90;;;;;;4961025;28;20042;-82
2022/04/15 04:40:41;;;;;;;16.77;9.80;;;8.00;99.90;;;;;;4977533;28;20043;-82
2022/04/15 04:43:08;;;;;;;15.10;9.35;;;8.00;99.90;;;;;;4960903;28;20038;-82
2022/04/15 04:45:34;;;;;;;14.95;9.52;;;8.00;99.90;;;;;;4961433;28;20062;-82
2022/04/15 04:48:04;;;;;;;15.35;10.07;;;8.00;99.90;;;;;;4960674;28;20043;-82
2022/04/15 04:50:31;;;;;;;16.60;11.65;;;8.00;99.90;;;;;;4977604;28;20039;-82
2022/04/15 04:52:57;;;;;;;16.08;11.32;;;8.00;99.90;;;;;;4960904;28;20034;-82
2022/04/15 04:55:23;;;;;;;17.90;11.55;;;8.10;99.90;;;;;;4976745;28;20039;-82
2022/04/15 04:57:49;;;;;;;18.70;12.40;;;8.10;99.90;;;;;;4944842;28;20042;-82
2022/04/15 05:00:17;;;;;;;15.80;12.30;;;8.10;99.90;;;;;;4962383;28;20065;-82
2022/04/15 05:02:44;;;;;;;18.77;13.35;;;8.10;99.90;;;;;;4962319;28;20047;-82
2022/04/15 05:05:10;;;;;;;21.00;13.05;;;8.10;99.90;;;;;;4959485;28;20038;-82
2022/04/15 05:07:36;;;;;;;19.02;12.38;;;8.10;99.90;;;;;;4996951;28;20093;-83
2022/04/15 05:10:04;;;;;;;17.65;12.43;;;8.10;99.90;;;;;;4979624;28;20073;-83
2022/04/15 05:12:29;;;;;;;16.70;12.52;;;8.10;99.90;;;;;;4981516;28;20394;-83
2022/04/15 05:14:55;;;;;;;17.65;11.93;;;8.10;99.90;;;;;;4980937;28;20042;-83
2022/04/15 05:17:21;;;;;;;13.32;11.00;;;8.10;99.90;;;;;;4979960;28;20100;-83
2022/04/15 05:19:46;;;;;;;13.32;10.07;;;8.10;99.90;;;;;;4980215;28;20042;-83
2022/04/15 05:22:13;;;;;;;13.73;10.30;;;8.00;99.90;;;;;;4996143;28;20624;-83
2022/04/15 05:24:39;;;;;;;13.98;10.10;;;8.00;99.90;;;;;;4996462;28;20050;-83
2022/04/15 05:27:05;;;;;;;14.50;10.60;;;8.00;99.90;;;;;;4996375;28;20042;-83
2022/04/15 05:29:31;;;;;;;13.27;10.48;;;8.00;99.90;;;;;;4996300;28;20038;-83
2022/04/15 05:31:57;;;;;;;12.20;9.95;;;8.00;99.90;;;;;;4996799;28;20031;-83
2022/04/15 05:34:23;;;;;;;15.95;11.25;;;8.00;99.90;;;;;;4960128;28;20039;-83
2022/04/15 05:36:48;;;;;;;14.45;10.57;;;7.90;99.90;;;;;;4989503;28;20038;-83
2022/04/15 05:39:14;;;;;;;12.18;10.00;;;7.90;99.90;;;;;;4979433;28;20504;-83
2022/04/15 05:41:40;;;;;;;15.02;10.90;;;7.90;99.90;;;;;;4995145;28;20042;-83
2022/04/15 05:44:07;;;;;;;12.82;9.63;;;7.90;99.90;;;;;;4995297;28;20058;-83
2022/04/15 05:46:34;;;;;;;13.27;9.90;;;7.90;99.90;;;;;;4980402;28;20073;-82
2022/04/15 05:49:00;;;;;;;11.77;9.05;;;7.90;99.90;;;;;;4977885;28;20394;-82
2022/04/15 05:51:25;;;;;;;11.55;8.68;;;7.90;99.90;;;;;;4979600;28;20035;-82
2022/04/15 05:53:51;;;;;;;10.60;8.15;;;7.90;99.90;;;;;;4962976;28;20092;-82
2022/04/15 05:56:17;;;;;;;10.35;8.35;;;7.90;99.90;;;;;;4980444;28;20045;-82
2022/04/15 05:58:43;;;;;;;12.45;8.00;;;7.90;99.90;;;;;;4979348;28;20112;-82
2022/04/15 06:01:09;;;;;;;11.93;8.63;;;7.80;99.90;;;;;;4994656;28;20038;-82
2022/04/15 06:03:38;;;;;;;13.57;9.88;;;7.90;99.90;;;;;;4978261;28;20050;-82
2022/04/15 06:06:04;;;;;;;12.80;9.60;;;7.80;99.90;;;;;;4994592;28;20042;-81
2022/04/15 06:08:30;;;;;;;33.88;24.08;;;7.80;99.90;;;;;;4978329;28;20511;-82
2022/04/15 06:10:56;;;;;;;20.25;15.98;;;7.80;99.90;;;;;;4995078;28;20050;-82
2022/04/15 06:13:25;;;;;;;13.18;9.23;;;7.80;99.90;;;;;;4979407;28;20109;-82
2022/04/15 06:15:56;;;;;;;16.25;14.20;;;7.80;99.90;;;;;;4963424;28;20035;-82
2022/04/15 06:18:23;;;;;;;10.13;7.70;;;7.80;99.90;;;;;;4978221;28;20042;-82
2022/04/15 06:20:50;;;;;;;11.70;8.20;;;7.80;99.90;;;;;;4995039;28;20042;-82
2022/04/15 06:23:17;;;;;;;13.48;10.82;;;7.80;99.90;;;;;;4974983;28;20070;-82
2022/04/15 06:25:44;;;;;;;12.25;8.38;;;7.80;99.90;;;;;;4991859;28;20125;-82
2022/04/15 06:28:10;;;;;;;10.18;7.45;;;7.80;99.90;;;;;;4976018;28;20039;-82
2022/04/15 06:30:36;;;;;;;10.63;7.60;;;7.80;99.90;;;;;;4994359;28;20049;-82
2022/04/15 06:33:05;;;;;;;10.82;7.45;;;7.80;99.90;;;;;;4994223;28;20537;-82
2022/04/15 06:35:32;;;;;;;10.13;7.72;;;7.80;99.90;;;;;;4994871;28;20407;-82
2022/04/15 06:37:58;;;;;;;12.75;7.72;;;7.80;99.90;;;;;;4978855;28;20043;-82
2022/04/15 06:40:24;;;;;;;10.43;7.60;;;7.80;99.90;;;;;;4995105;28;20045;-82
2022/04/15 06:42:49;;;;;;;10.50;7.88;;;7.80;99.90;;;;;;4997691;28;20046;-82
2022/04/15 06:45:15;;;;;;;12.85;8.30;;;7.80;99.90;;;;;;4966502;28;20105;-82
2022/04/15 06:47:41;;;;;;;10.75;8.90;;;7.80;99.90;;;;;;4981627;28;20044;-82
2022/04/15 06:50:07;;;;;;;12.05;8.90;;;7.80;99.90;;;;;;4999232;28;20054;-82
2022/04/15 06:52:33;;;;;;;12.30;10.00;;;7.80;99.90;;;;;;4967078;28;20038;-82
2022/04/15 06:54:59;;;;;;;12.73;9.80;;;7.80;99.90;;;;;;4982987;28;20045;-82
2022/04/15 06:57:24;;;;;;;14.00;10.00;;;7.80;99.90;;;;;;5000018;28;20046;-82
2022/04/15 06:59:50;;;;;;;13.23;10.20;;;7.80;99.90;;;;;;4983196;28;20046;-82
2022/04/15 07:02:16;;;;;;;15.75;11.48;;;7.80;99.90;;;;;;4998437;28;20042;-82
2022/04/15 07:04:42;;;;;;;12.93;10.25;;;7.80;99.90;;;;;;5000026;28;20065;-82
2022/04/15 07:07:07;;;;;;;13.68;10.32;;;7.80;99.90;;;;;;4998018;28;20045;-82
2022/04/15 07:09:34;;;;;;;14.48;10.57;;;7.80;99.90;;;;;;4982665;28;20046;-82
2022/04/15 07:11:59;;;;;;;12.43;9.82;;;7.80;99.90;;;;;;4982252;28;20486;-82
2022/04/15 07:14:25;;;;;;;14.10;10.00;;;7.90;99.90;;;;;;4998862;28;20030;-82
2022/04/15 07:16:51;;;;;;;13.95;9.90;;;7.90;99.90;;;;;;4997980;28;20490;-82
2022/04/15 07:19:17;;;;;;;14.40;10.43;;;8.00;99.90;;;;;;4977761;28;20042;-82
2022/04/15 07:21:43;;;;;;;15.40;10.98;;;8.00;99.90;;;;;;4992939;28;20393;-83
2022/04/15 07:24:09;;;;;;;14.98;10.95;;;8.00;99.90;;;;;;4989713;28;21133;-83
2022/04/15 07:26:35;;;;;;;15.73;11.68;;;8.10;99.90;;;;;;4999869;28;20034;-83
2022/04/15 07:29:01;;;;;;;15.13;11.02;;;8.10;99.90;;;;;;4997544;28;20038;-83
2022/04/15 07:31:27;;;;;;;16.15;12.48;;;8.10;99.90;;;;;;4978847;28;20042;-83
2022/04/15 07:33:53;;;;;;;17.23;12.35;;;8.10;99.90;;;;;;4986565;28;20498;-82
2022/04/15 07:36:42;;;;;;;18.95;13.13;;;8.00;99.90;;;;;;4993725;28;20034;-82
2022/04/15 07:39:10;;;;;;;15.52;12.20;;;8.10;99.90;;;;;;4993019;28;20070;-82
2022/04/15 07:41:38;;;;;;;16.60;12.10;;;8.20;99.90;;;;;;4980123;28;20125;-82
2022/04/15 07:44:04;;;;;;;15.73;12.48;;;8.30;99.90;;;;;;4983587;28;20404;-82
2022/04/15 07:46:30;;;;;;;15.32;11.73;;;8.30;99.90;;;;;;4977982;28;20038;-82
2022/04/15 07:48:56;;;;;;;17.83;12.05;;;8.30;99.90;;;;;;4993045;28;20038;-82
2022/04/15 07:51:22;;;;;;;17.05;12.15;;;8.40;99.90;;;;;;4980260;28;20042;-82
2022/04/15 07:53:47;;;;;;;16.75;12.98;;;8.40;99.90;;;;;;4979887;28;20038;-82
2022/04/15 07:56:13;;;;;;;18.40;12.82;;;8.60;99.90;;;;;;4980227;28;20042;-82
2022/04/15 07:58:39;;;;;;;17.25;12.57;;;8.40;99.90;;;;;;4960035;28;20193;-82
2022/04/15 08:01:06;;;;;;;19.75;13.43;;;8.50;99.90;;;;;;4979807;28;20050;-82
2022/04/15 08:03:32;;;;;;;18.13;13.73;;;8.40;99.90;;;;;;4996455;28;20054;-82
2022/04/15 08:05:58;;;;;;;20.23;13.93;;;8.50;99.90;;;;;;4978396;28;20043;-82
2022/04/15 08:08:24;;;;;;;17.85;13.40;;;8.50;99.90;;;;;;4996837;28;20134;-82
2022/04/15 08:10:53;;;;;;;18.85;13.27;;;8.50;99.90;;;;;;4982936;28;20099;-82
2022/04/15 08:13:19;;;;;;;18.98;13.60;;;8.50;99.90;;;;;;4986310;28;20038;-82
2022/04/15 08:15:46;;;;;;;19.80;13.75;;;8.50;99.90;;;;;;4985549;28;20045;-82
2022/04/15 08:18:12;;;;;;;22.92;13.88;;;8.40;99.90;;;;;;4984776;28;20129;-82
2022/04/15 08:20:37;;;;;;;21.13;14.60;;;8.40;99.90;;;;;;4984995;28;20073;-82
2022/04/15 08:23:03;;;;;;;21.67;14.52;;;8.50;99.90;;;;;;4952757;28;20049;-82
2022/04/15 08:25:30;;;;;;;20.38;14.95;;;8.50;99.90;;;;;;4984641;28;20076;-82
2022/04/15 08:27:56;;;;;;;20.15;14.82;;;8.40;99.90;;;;;;5002051;28;20518;-82
2022/04/15 08:30:22;;;;;;;23.02;15.20;;;8.40;99.90;;;;;;4985997;28;20100;-82
2022/04/15 08:32:52;;;;;;;22.60;14.98;;;8.40;99.90;;;;;;5001925;28;20038;-82
2022/04/15 08:35:18;;;;;;;21.02;15.52;;;8.50;99.90;;;;;;4986104;28;20034;-82
2022/04/15 08:37:43;;;;;;;21.42;15.13;;;8.60;99.90;;;;;;4985017;28;20073;-82
2022/04/15 08:40:11;;;;;;;18.02;13.90;;;8.60;99.90;;;;;;4978680;28;20045;-82
2022/04/15 08:42:42;;;;;;;21.88;14.32;;;8.70;99.90;;;;;;5005978;28;20038;-82
2022/04/15 08:45:08;;;;;;;23.08;15.52;;;8.70;99.90;;;;;;5000729;28;20050;-82
2022/04/15 08:47:37;;;;;;;25.02;14.68;;;8.70;99.90;;;;;;4964718;28;20491;-82
2022/04/15 08:50:05;;;;;;;24.20;14.25;;;8.80;99.90;;;;;;4983771;28;20042;-82
2022/04/15 08:52:31;;;;;;;23.77;14.55;;;8.80;99.90;;;;;;4969459;28;20602;-82
2022/04/15 08:54:58;;;;;;;27.05;15.77;;;8.70;99.90;;;;;;4985198;28;20052;-82
2022/04/15 08:57:24;;;;;;;22.30;14.57;;;8.70;99.90;;;;;;4984242;28;20148;-82
2022/04/15 08:59:50;;;;;;;23.00;14.10;;;8.70;99.90;;;;;;4998882;28;20129;-82
2022/04/15 09:02:52;;;;;;;20.00;13.75;;;8.80;99.90;;;;;;4984130;28;20066;-82
2022/04/15 09:05:23;;;;;;;21.97;13.47;;;8.80;99.90;;;;;;4957265;28;20117;-82
2022/04/15 09:07:49;;;;;;;20.67;12.93;;;8.80;99.90;;;;;;4992766;28;20044;-82
2022/04/15 09:10:18;;;;;;;18.85;12.27;;;8.80;99.90;;;;;;4976459;28;20068;-82
2022/04/15 09:12:46;;;;;;;18.83;11.77;;;8.80;99.90;;;;;;4982147;28;20057;-82
2022/04/15 09:15:13;;;;;;;18.10;11.77;;;8.90;99.90;;;;;;4968319;28;20041;-82
2022/04/15 09:17:41;;;;;;;14.88;10.05;;;9.10;99.90;;;;;;4973022;28;20509;-82
2022/04/15 09:20:09;;;;;;;15.63;9.60;;;9.20;99.90;;;;;;4982378;28;20560;-83
2022/04/15 09:22:35;;;;;;;12.48;8.10;;;9.30;99.90;;;;;;4974441;28;20058;-82
2022/04/15 09:25:02;;;;;;;13.38;8.80;;;9.30;99.90;;;;;;4987756;28;20486;-82
2022/04/15 09:27:28;;;;;;;12.52;8.38;;;9.40;99.90;;;;;;4983969;28;20046;-82
2022/04/15 09:29:54;;;;;;;13.50;8.50;;;9.50;99.90;;;;;;4983011;28;20121;-82
2022/04/15 09:32:22;;;;;;;12.40;8.23;;;9.50;99.90;;;;;;4987018;28;20498;-82
2022/04/15 09:35:01;;;;;;;13.88;8.45;;;9.40;99.90;;;;;;4964565;28;20074;-82
2022/04/15 09:37:30;;;;;;;12.98;8.43;;;9.40;99.90;;;;;;4997737;28;20038;-82
2022/04/15 09:40:08;;;;;;;13.27;8.75;;;9.40;99.90;;;;;;4980508;28;20464;-82
2022/04/15 09:42:35;;;;;;;13.57;7.90;;;9.50;99.90;;;;;;4980146;28;20054;-82
2022/04/15 09:45:36;;;;;;;11.05;8.13;;;9.60;99.90;;;;;;4961063;28;20053;-81
2022/04/15 09:48:09;;;;;;;14.98;8.45;;;9.50;99.90;;;;;;4981879;28;20046;-82
2022/04/15 09:50:42;;;;;;;14.73;8.50;;;9.60;99.90;;;;;;4984047;28;20036;-82
2022/04/15 09:53:17;;;;;;;13.50;8.48;;;9.70;99.90;;;;;;5000414;28;20361;-82
2022/04/15 09:55:51;;;;;;;16.27;8.07;;;9.80;99.90;;;;;;4984619;28;20031;-82
2022/04/15 09:58:19;;;;;;;11.98;7.80;;;9.90;99.90;;;;;;4998859;28;20073;-82
2022/04/15 10:00:48;;;;;;;14.45;8.60;;;10.10;99.90;;;;;;4999087;28;20065;-82
2022/04/15 10:03:35;;;;;;;14.63;9.02;;;10.10;99.90;;;;;;4997482;28;20043;-82
2022/04/15 10:06:02;;;;;;;16.02;10.57;;;10.10;99.90;;;;;;4962978;28;20517;-82
2022/04/15 10:08:28;;;;;;;14.00;9.57;;;10.20;99.90;;;;;;4981940;28;20038;-82
2022/04/15 10:10:55;;;;;;;15.57;9.68;;;10.20;99.90;;;;;;4980164;28;20050;-82
2022/04/15 10:13:26;;;;;;;15.88;8.80;;;10.40;99.90;;;;;;4975122;28;20576;-82
2022/04/15 10:15:53;;;;;;;33.65;20.58;;;10.50;99.90;;;;;;4975509;28;20130;-82
2022/04/15 10:18:20;;;;;;;15.77;9.82;;;10.60;99.90;;;;;;4989522;28;20053;-82
2022/04/15 10:20:45;;;;;;;26.08;17.30;;;10.70;99.90;;;;;;4984486;28;20102;-82
2022/04/15 10:23:14;;;;;;;13.15;8.60;;;10.70;99.90;;;;;;4982884;28;20506;-81
2022/04/15 10:25:46;;;;;;;40.42;24.55;;;10.70;99.90;;;;;;5000573;28;20045;-82
2022/04/15 10:28:45;;;;;;;19.48;11.70;;;10.80;99.90;;;;;;4999602;28;20493;-82
2022/04/15 10:31:13;;;;;;;24.95;13.82;;;10.80;99.90;;;;;;4999223;28;20125;-82
2022/04/15 10:33:40;;;;;;;14.75;9.18;;;10.70;99.90;;;;;;4981923;28;20405;-82
2022/04/15 10:36:14;;;;;;;34.92;21.27;;;10.80;99.90;;;;;;4999160;28;20035;-82
2022/04/15 10:39:09;;;;;;;63.38;36.40;;;10.70;99.90;;;;;;4983144;28;20138;-82
2022/04/15 10:41:41;;;;;;;21.05;11.13;;;10.70;99.90;;;;;;4982836;28;20042;-82
2022/04/15 10:44:10;;;;;;;35.00;20.50;;;10.70;99.90;;;;;;4998660;28;20045;-82
2022/04/15 10:46:36;;;;;;;33.03;21.13;;;10.70;99.90;;;;;;4982959;28;20169;-82
2022/04/15 10:49:18;;;;;;;33.83;23.02;;;10.70;99.90;;;;;;4996549;28;20061;-82
2022/04/15 10:51:44;;;;;;;12.88;8.40;;;10.80;99.90;;;;;;4982453;28;20042;-82
2022/04/15 10:54:29;;;;;;;13.95;8.48;;;10.80;99.90;;;;;;4981704;28;20516;-82
2022/04/15 10:57:14;;;;;;;12.00;7.53;;;10.90;99.90;;;;;;4998368;28;20034;-82
2022/04/15 11:02:44;;;;;;;15.60;9.77;;;10.90;99.90;;;;;;4997333;28;20050;-82
2022/04/15 11:05:15;;;;;;;16.55;11.60;;;10.80;99.90;;;;;;4998912;28;20057;-82
2022/04/15 11:07:57;;;;;;;13.23;8.98;;;10.80;99.90;;;;;;4998605;28;20101;-82
2022/04/15 11:10:50;;;;;;;10.40;6.65;;;10.80;99.90;;;;;;4998880;28;20100;-81
2022/04/15 11:13:33;;;;;;;12.77;8.23;;;11.00;99.90;;;;;;4963413;28;20041;-81
2022/04/15 11:16:13;;;;;;;10.65;8.07;;;10.90;99.90;;;;;;4978578;28;20074;-82
2022/04/15 11:18:50;;;;;;;11.35;7.82;;;10.80;99.90;;;;;;4961544;28;20101;-82
2022/04/15 11:21:22;;;;;;;11.48;7.22;;;10.80;99.90;;;;;;4962763;28;20494;-82
2022/04/15 11:24:00;;;;;;;11.23;7.15;;;10.80;99.90;;;;;;4977578;28;20038;-82
2022/04/15 11:26:28;;;;;;;9.80;6.55;;;10.90;99.90;;;;;;4977862;28;20054;-82
2022/04/15 11:28:57;;;;;;;23.85;14.88;;;10.90;99.90;;;;;;4971113;28;20042;-82
2022/04/15 11:31:33;;;;;;;13.55;7.82;;;10.90;99.90;;;;;;4981316;28;20046;-82
2022/04/15 11:34:14;;;;;;;13.18;7.35;;;10.90;99.90;;;;;;4998772;28;20041;-82
2022/04/15 11:36:49;;;;;;;11.88;6.95;;;10.80;99.90;;;;;;4983310;28;20065;-82
2022/04/15 11:39:17;;;;;;;12.52;7.85;;;10.80;99.90;;;;;;5015110;28;20042;-82
2022/04/15 11:41:49;;;;;;;12.43;7.55;;;10.90;99.90;;;;;;5002821;28;20042;-82
2022/04/15 11:44:16;;;;;;;14.18;10.55;;;10.90;99.90;;;;;;4990534;28;20034;-82
2022/04/15 11:46:50;;;;;;;12.85;8.27;;;11.00;99.90;;;;;;4978624;28;20043;-83
2022/04/15 11:49:21;;;;;;;12.77;8.52;;;11.00;99.90;;;;;;4979692;28;20050;-82
2022/04/15 11:51:55;;;;;;;13.20;8.63;;;10.80;99.90;;;;;;4978314;28;20035;-82
2022/04/15 11:54:22;;;;;;;12.43;8.57;;;10.90;99.90;;;;;;4946192;28;20050;-82
2022/04/15 11:56:54;;;;;;;14.18;7.95;;;10.70;99.90;;;;;;4977900;28;20047;-82
2022/04/15 11:59:20;;;;;;;12.18;7.93;;;10.80;99.90;;;;;;4978851;28;20054;-82
2022/04/15 12:01:45;;;;;;;11.02;7.28;;;10.70;99.90;;;;;;4995887;28;20049;-82
2022/04/15 12:04:12;;;;;;;11.77;8.20;;;10.70;99.90;;;;;;4962412;28;20039;-82
2022/04/15 12:06:41;;;;;;;34.22;21.92;;;10.70;99.90;;;;;;4978085;28;20043;-82
2022/04/15 12:09:11;;;;;;;24.92;18.15;;;10.60;99.90;;;;;;4977567;28;20051;-82
2022/04/15 12:11:38;;;;;;;15.63;12.00;;;10.60;99.90;;;;;;4961547;28;20102;-82
2022/04/15 12:14:06;;;;;;;16.83;12.65;;;10.80;99.90;;;;;;4977777;28;20486;-81
2022/04/15 12:16:35;;;;;;;18.98;14.55;;;10.80;99.90;;;;;;4978854;28;20049;-81
2022/04/15 12:19:02;;;;;;;12.05;8.52;;;10.80;99.90;;;;;;4977513;28;20047;-81
2022/04/15 12:21:29;;;;;;;13.15;8.88;;;10.70;99.90;;;;;;4947812;28;20402;-81
2022/04/15 12:24:10;;;;;;;10.75;7.43;;;10.80;99.90;;;;;;4964087;28;20051;-81
2022/04/15 12:26:51;;;;;;;18.73;14.90;;;10.80;99.90;;;;;;4996084;28;20050;-81
2022/04/15 12:32:34;;;;;;;13.00;8.82;;;10.90;99.90;;;;;;4997459;28;20585;-81
2022/04/15 12:34:59;;;;;;;13.90;9.27;;;10.70;99.90;;;;;;4977966;28;20065;-81
2022/04/15 12:37:46;;;;;;;13.40;10.35;;;10.60;99.90;;;;;;4989575;28;20034;-81
2022/04/15 12:40:15;;;;;;;12.52;8.60;;;10.60;99.90;;;;;;4992700;28;20121;-81
2022/04/15 12:42:43;;;;;;;23.48;21.08;;;10.50;99.90;;;;;;4977727;28;20053;-81
2022/04/15 12:45:11;;;;;;;20.70;16.25;;;10.60;99.90;;;;;;4972762;28;20475;-81
2022/04/15 12:47:38;;;;;;;15.45;10.10;;;10.40;99.90;;;;;;4972030;28;20073;-81
2022/04/15 12:50:20;;;;;;;18.88;14.68;;;10.60;99.90;;;;;;5012344;28;20041;-81
2022/04/15 12:52:48;;;;;;;14.68;8.65;;;10.60;99.90;;;;;;4977600;28;20123;-81